Time;durP1;ratioP1;P1;durP2;ratioP2;P2;SDS_P1;SDS_P2;PMS_P1;PMS_P2;Temp;Humidity;BMP_temperature;BMP_pressure;BME280_temperature;BME280_humidity;BME280_pressure;Samples;Min_cycle;Max_cycle;Signal;HPM_P1;HPM_P2
2021/05/21 00:00:43;;;;;;;3.60;3.30;;;12.10;99.90;;;;;;5079459;28;20453;-79
2021/05/21 00:03:09;;;;;;;3.70;3.40;;;13.00;99.90;;;;;;5080695;28;20426;-78
2021/05/21 00:05:36;;;;;;;4.57;3.87;;;13.00;99.90;;;;;;5080696;28;20930;-78
2021/05/21 00:08:02;;;;;;;5.40;5.10;;;12.70;99.90;;;;;;5079943;28;20455;-79
2021/05/21 00:10:29;;;;;;;4.80;4.40;;;12.90;99.90;;;;;;5079126;28;20480;-79
2021/05/21 00:12:55;;;;;;;3.50;3.20;;;12.90;99.90;;;;;;5082410;28;20467;-79
2021/05/21 00:15:21;;;;;;;3.43;3.13;;;12.90;99.90;;;;;;5083439;28;20449;-79
2021/05/21 00:17:47;;;;;;;3.83;3.53;;;12.90;99.90;;;;;;5083106;28;20467;-79
2021/05/21 00:20:14;;;;;;;3.80;3.50;;;13.00;99.90;;;;;;5082226;28;20531;-78
2021/05/21 00:22:42;;;;;;;4.37;3.90;;;13.00;99.90;;;;;;5081739;28;20448;-79
2021/05/21 00:25:09;;;;;;;3.80;3.50;;;13.00;99.90;;;;;;5078976;28;20499;-79
2021/05/21 00:27:35;;;;;;;4.03;3.73;;;13.00;99.90;;;;;;5078771;28;20550;-79
2021/05/21 00:30:02;;;;;;;6.03;3.73;;;13.00;99.90;;;;;;5080418;28;20880;-79
2021/05/21 00:32:28;;;;;;;4.03;3.80;;;13.00;99.90;;;;;;5079229;28;20589;-78
2021/05/21 00:34:54;;;;;;;3.80;3.50;;;13.00;99.90;;;;;;5080689;28;20440;-79
2021/05/21 00:37:21;;;;;;;4.33;3.23;;;;;;;;;;5077932;28;20484;-79
2021/05/21 00:39:47;;;;;;;3.70;3.40;;;13.00;99.90;;;;;;5077619;28;20940;-79
2021/05/21 00:42:14;;;;;;;3.70;3.40;;;13.00;99.90;;;;;;5077305;28;20476;-79
2021/05/21 00:44:40;;;;;;;7.03;3.20;;;;;;;;;;5077200;28;20970;-79
2021/05/21 00:47:06;;;;;;;4.37;4.07;;;13.00;99.90;;;;;;5078054;28;20781;-78
2021/05/21 00:49:33;;;;;;;3.97;3.67;;;12.90;99.90;;;;;;5079702;28;20480;-78
2021/05/21 00:52:02;;;;;;;5.00;3.87;;;12.90;99.90;;;;;;5081496;28;20424;-79
2021/05/21 00:54:28;;;;;;;4.77;3.60;;;12.90;99.90;;;;;;5081977;28;20463;-78
2021/05/21 00:56:55;;;;;;;3.73;3.43;;;12.80;99.90;;;;;;5078570;28;20441;-79
2021/05/21 00:59:21;;;;;;;4.07;3.77;;;12.80;99.90;;;;;;5077466;28;20464;-80
2021/05/21 01:01:48;;;;;;;3.53;3.33;;;12.80;99.90;;;;;;5076218;28;20495;-79
2021/05/21 01:04:15;;;;;;;4.30;3.90;;;12.80;99.90;;;;;;5077948;28;20452;-81
2021/05/21 01:06:41;;;;;;;4.17;3.77;;;12.70;99.90;;;;;;5076652;28;20472;-80
2021/05/21 01:09:07;;;;;;;4.87;4.10;;;12.80;99.90;;;;;;5078458;28;20522;-80
2021/05/21 01:11:34;;;;;;;4.30;3.90;;;12.70;99.90;;;;;;5087846;28;20419;-79
2021/05/21 01:14:02;;;;;;;3.50;3.20;;;12.70;99.90;;;;;;5085796;28;20453;-81
2021/05/21 01:16:31;;;;;;;4.30;3.73;;;12.70;99.90;;;;;;5088363;28;20445;-80
2021/05/21 01:19:03;;;;;;;3.60;3.40;;;12.70;99.90;;;;;;5084041;28;20491;-81
2021/05/21 01:21:31;;;;;;;5.10;4.70;;;12.80;99.90;;;;;;5083433;28;20564;-81
2021/05/21 01:23:57;;;;;;;4.33;4.03;;;12.60;99.90;;;;;;5081892;28;20437;-79
2021/05/21 01:26:25;;;;;;;3.60;3.30;;;12.50;99.90;;;;;;5082907;28;20523;-79
2021/05/21 01:28:52;;;;;;;3.63;3.33;;;12.70;99.90;;;;;;5083549;28;20635;-80
2021/05/21 01:31:18;;;;;;;4.20;3.90;;;12.70;99.90;;;;;;5089481;28;20877;-80
2021/05/21 01:33:44;;;;;;;7.20;3.23;;;12.70;99.90;;;;;;5089766;27;20445;-79
2021/05/21 01:36:10;;;;;;;4.17;3.87;;;12.70;99.90;;;;;;5090367;28;20826;-80
2021/05/21 01:38:38;;;;;;;5.93;3.60;;;13.00;99.90;;;;;;5087086;28;20471;-82
2021/05/21 01:41:04;;;;;;;5.73;3.77;;;12.40;99.90;;;;;;5091361;28;20475;-80
2021/05/21 01:43:31;;;;;;;3.77;3.50;;;12.70;99.90;;;;;;5094400;28;20452;-81
2021/05/21 01:45:58;;;;;;;3.90;3.60;;;12.70;99.90;;;;;;5088256;28;20943;-80
2021/05/21 01:48:24;;;;;;;4.20;3.80;;;12.70;99.90;;;;;;5084702;28;20465;-82
2021/05/21 01:50:51;;;;;;;3.70;3.40;;;12.60;99.90;;;;;;5086573;28;20568;-80
2021/05/21 01:53:17;;;;;;;3.93;3.60;;;12.60;99.90;;;;;;5093608;28;20422;-80
2021/05/21 01:55:50;;;;;;;4.10;3.80;;;12.90;99.90;;;;;;5095384;28;20418;-80
2021/05/21 01:58:16;;;;;;;3.80;3.50;;;12.70;99.90;;;;;;5093530;28;20463;-80
2021/05/21 02:00:43;;;;;;;3.30;3.00;;;12.60;99.90;;;;;;5089321;28;20849;-80
2021/05/21 02:03:09;;;;;;;4.57;4.17;;;12.80;99.90;;;;;;5087094;28;20408;-80
2021/05/21 02:05:35;;;;;;;4.03;3.73;;;12.70;99.90;;;;;;5085877;28;20423;-80
2021/05/21 02:08:01;;;;;;;4.93;4.20;;;13.40;99.90;;;;;;5083153;28;20525;-80
2021/05/21 02:10:28;;;;;;;3.67;3.37;;;12.60;99.90;;;;;;5082361;28;20484;-80
2021/05/21 02:12:55;;;;;;;4.43;4.03;;;12.60;99.90;;;;;;5085808;28;20475;-80
2021/05/21 02:15:21;;;;;;;4.73;3.77;;;13.10;99.90;;;;;;5091734;28;20448;-79
2021/05/21 02:17:48;;;;;;;4.37;3.40;;;12.30;99.90;;;;;;5087939;28;20448;-80
2021/05/21 02:20:14;;;;;;;5.23;4.37;;;12.70;99.90;;;;;;5087056;28;20483;-80
2021/05/21 02:22:41;;;;;;;4.13;3.80;;;11.50;99.90;;;;;;5081672;28;20578;-80
2021/05/21 02:25:09;;;;;;;3.53;3.23;;;12.30;99.90;;;;;;5081077;28;20436;-80
2021/05/21 02:27:36;;;;;;;3.27;2.97;;;;;;;;;;5079574;28;20453;-80
2021/05/21 02:30:04;;;;;;;4.10;3.80;;;12.60;99.90;;;;;;5084083;28;20476;-80
2021/05/21 02:32:31;;;;;;;3.30;2.97;;;12.50;99.90;;;;;;5086288;28;20792;-80
2021/05/21 02:34:57;;;;;;;4.20;3.80;;;12.80;99.90;;;;;;5082908;28;20454;-80
2021/05/21 02:37:23;;;;;;;5.73;3.60;;;12.90;99.90;;;;;;5084073;28;20444;-80
2021/05/21 02:39:50;;;;;;;4.70;3.60;;;13.10;99.90;;;;;;5086029;28;20476;-80
2021/05/21 02:42:16;;;;;;;3.20;3.00;;;12.00;99.90;;;;;;5086795;28;20484;-80
2021/05/21 02:44:42;;;;;;;4.53;3.50;;;12.60;99.90;;;;;;5088008;28;20457;-80
2021/05/21 02:47:09;;;;;;;4.10;3.13;;;12.50;99.90;;;;;;5086736;28;20475;-80
2021/05/21 02:49:35;;;;;;;4.03;3.73;;;11.80;99.90;;;;;;5081990;28;20465;-81
2021/05/21 02:52:02;;;;;;;3.70;3.50;;;12.20;99.90;;;;;;5081873;28;20416;-80
2021/05/21 02:54:28;;;;;;;3.73;3.50;;;12.50;99.90;;;;;;5083959;28;20441;-80
2021/05/21 02:56:55;;;;;;;3.43;3.17;;;12.60;99.90;;;;;;5086501;28;20427;-80
2021/05/21 02:59:21;;;;;;;3.70;3.37;;;12.40;99.90;;;;;;5085051;28;20464;-80
2021/05/21 03:01:47;;;;;;;3.75;3.20;;;12.30;99.90;;;;;;5081830;28;20484;-81
2021/05/21 03:04:14;;;;;;;5.13;3.33;;;12.40;99.90;;;;;;5083730;28;20206;-81
2021/05/21 03:06:40;;;;;;;4.00;3.70;;;12.30;99.90;;;;;;5084581;28;20411;-80
2021/05/21 03:09:06;;;;;;;4.23;3.53;;;12.40;99.90;;;;;;5085522;28;20456;-80
2021/05/21 03:11:33;;;;;;;3.93;3.63;;;12.30;99.90;;;;;;5085637;28;20959;-80
2021/05/21 03:13:59;;;;;;;3.72;3.42;;;12.50;99.90;;;;;;5085447;28;20423;-82
2021/05/21 03:16:25;;;;;;;4.03;3.80;;;12.40;99.90;;;;;;5082882;28;20202;-81
2021/05/21 03:18:51;;;;;;;4.90;3.00;;;12.30;99.90;;;;;;5082906;28;20469;-80
2021/05/21 03:21:18;;;;;;;3.50;3.20;;;12.40;99.90;;;;;;5078943;28;20496;-79
2021/05/21 03:23:44;;;;;;;4.40;3.33;;;12.30;99.90;;;;;;5074467;28;20470;-79
2021/05/21 03:26:10;;;;;;;3.70;3.40;;;12.30;99.90;;;;;;5074435;28;20452;-80
2021/05/21 03:28:39;;;;;;;4.47;4.00;;;;;;;;;;5088030;22;20534;-83
2021/05/21 03:31:05;;;;;;;4.93;4.20;;;12.40;99.90;;;;;;5043505;28;20506;-81
2021/05/21 03:33:32;;;;;;;5.40;3.50;;;12.00;99.90;;;;;;5045468;28;20454;-82
2021/05/21 03:35:58;;;;;;;4.70;4.10;;;12.30;99.90;;;;;;5047652;28;20449;-82
2021/05/21 03:38:25;;;;;;;4.70;3.70;;;12.20;99.90;;;;;;5048386;28;20204;-82
2021/05/21 03:40:51;;;;;;;3.40;3.20;;;;;;;;;;5066296;28;20442;-82
2021/05/21 03:43:18;;;;;;;4.13;3.70;;;;;;;;;;5066984;28;20452;-83
2021/05/21 03:45:44;;;;;;;3.70;3.43;;;12.40;99.90;;;;;;5065351;28;20446;-79
2021/05/21 03:48:12;;;;;;;3.30;3.10;;;12.50;99.90;;;;;;5068884;28;20417;-80
2021/05/21 03:50:38;;;;;;;4.67;3.10;;;12.40;99.90;;;;;;5069837;28;20550;-79
2021/05/21 03:53:04;;;;;;;3.87;3.57;;;12.30;99.90;;;;;;5062108;28;20449;-83
2021/05/21 03:55:31;;;;;;;4.20;3.90;;;12.40;99.90;;;;;;5058162;28;20445;-82
2021/05/21 03:57:58;;;;;;;4.60;3.77;;;;;;;;;;5058378;28;20476;-82
2021/05/21 04:00:24;;;;;;;4.17;3.80;;;12.40;99.90;;;;;;5059340;28;20473;-82
2021/05/21 04:02:51;;;;;;;3.67;3.40;;;12.40;99.90;;;;;;5062862;28;20450;-81
2021/05/21 04:05:18;;;;;;;3.73;3.40;;;12.40;99.90;;;;;;5062548;28;20424;-81
2021/05/21 04:07:44;;;;;;;4.77;4.27;;;;;;;;;;5062899;28;20420;-83
2021/05/21 04:10:12;;;;;;;4.40;3.38;;;12.50;99.90;;;;;;5061200;28;20455;-81
2021/05/21 04:12:38;;;;;;;5.43;4.57;;;12.40;99.90;;;;;;5064808;28;20445;-82
2021/05/21 04:15:06;;;;;;;4.57;3.90;;;12.40;99.90;;;;;;5063524;28;21012;-81
2021/05/21 04:17:32;;;;;;;4.40;3.60;;;12.30;99.90;;;;;;5062497;28;20423;-81
2021/05/21 04:19:59;;;;;;;3.77;3.47;;;12.30;99.90;;;;;;5062117;28;20462;-82
2021/05/21 04:22:25;;;;;;;4.00;3.70;;;12.30;99.90;;;;;;5061564;28;20453;-82
2021/05/21 04:24:52;;;;;;;3.97;3.63;;;;;;;;;;5060849;28;20453;-81
2021/05/21 04:27:18;;;;;;;4.70;4.00;;;;;;;;;;5061059;28;20790;-82
2021/05/21 04:29:45;;;;;;;4.60;4.20;;;12.30;99.90;;;;;;5060142;28;20525;-81
2021/05/21 04:32:11;;;;;;;3.60;3.30;;;12.30;99.90;;;;;;5062352;28;20449;-81
2021/05/21 04:34:37;;;;;;;5.80;4.40;;;12.30;99.90;;;;;;5063956;28;20452;-80
2021/05/21 04:37:03;;;;;;;4.27;3.87;;;12.40;99.90;;;;;;5068873;28;20445;-79
2021/05/21 04:39:30;;;;;;;5.23;4.07;;;;;;;;;;5068055;28;20466;-79
2021/05/21 04:41:56;;;;;;;3.37;3.07;;;12.40;99.90;;;;;;5070302;28;20458;-80
2021/05/21 04:44:23;;;;;;;5.93;3.73;;;;;;;;;;5071067;28;20462;-81
2021/05/21 04:46:50;;;;;;;5.43;3.97;;;12.50;99.90;;;;;;5070971;28;20441;-80
2021/05/21 04:49:32;;;;;;;4.30;3.90;;;12.50;99.90;;;;;;5070826;28;20504;-79
2021/05/21 04:51:59;;;;;;;4.27;3.87;;;12.30;99.90;;;;;;5068810;28;20457;-79
2021/05/21 04:54:25;;;;;;;12.27;3.90;;;12.60;99.90;;;;;;5069921;28;20442;-79
2021/05/21 04:56:52;;;;;;;4.77;3.27;;;;;;;;;;5070999;28;20453;-80
2021/05/21 04:59:18;;;;;;;3.87;3.57;;;12.70;99.90;;;;;;5069663;28;20473;-79
2021/05/21 05:01:44;;;;;;;5.07;3.53;;;12.70;99.90;;;;;;5065067;28;20445;-79
2021/05/21 05:04:11;;;;;;;3.27;3.00;;;12.60;99.90;;;;;;5065716;28;20821;-80
2021/05/21 05:06:37;;;;;;;5.20;3.20;;;12.80;99.90;;;;;;5065063;28;20448;-79
2021/05/21 05:09:04;;;;;;;4.77;3.77;;;12.70;99.90;;;;;;5065377;28;20469;-81
2021/05/21 05:11:31;;;;;;;7.47;3.90;;;;;;;;;;5065999;28;20488;-80
2021/05/21 05:13:57;;;;;;;4.70;3.67;;;12.80;99.90;;;;;;5065684;28;20442;-78
2021/05/21 05:16:23;;;;;;;3.90;3.53;;;;;;;;;;5067779;28;20427;-79
2021/05/21 05:18:50;;;;;;;3.87;3.57;;;;;;;;;;5066343;28;20481;-79
2021/05/21 05:21:17;;;;;;;3.70;3.43;;;13.10;99.90;;;;;;5064086;28;20438;-80
2021/05/21 05:23:43;;;;;;;5.53;4.20;;;13.20;99.90;;;;;;5062463;28;20431;-81
2021/05/21 05:26:12;;;;;;;8.77;3.40;;;;;;;;;;5065877;28;20449;-81
2021/05/21 05:28:38;;;;;;;3.90;3.60;;;13.30;99.90;;;;;;5065885;28;20469;-80
2021/05/21 05:31:04;;;;;;;4.43;4.03;;;13.50;99.90;;;;;;5067217;28;20469;-80
2021/05/21 05:33:30;;;;;;;6.50;5.00;;;;;;;;;;5068008;28;20437;-81
2021/05/21 05:35:57;;;;;;;5.73;4.33;;;;;;;;;;5065962;28;20446;-81
2021/05/21 05:38:25;;;;;;;3.90;3.53;;;13.70;99.90;;;;;;5065320;28;20454;-81
2021/05/21 05:40:51;;;;;;;5.63;3.70;;;13.60;99.90;;;;;;5064961;28;20449;-81
2021/05/21 05:43:17;;;;;;;4.90;3.37;;;13.60;99.90;;;;;;5063194;28;20506;-82
2021/05/21 05:45:43;;;;;;;3.97;3.63;;;13.70;99.90;;;;;;5059248;28;20420;-82
2021/05/21 05:48:09;;;;;;;4.23;3.37;;;13.20;99.90;;;;;;5060406;28;20507;-81
2021/05/21 05:50:36;;;;;;;5.30;3.37;;;;;;;;;;5062821;28;20456;-81
2021/05/21 05:53:02;;;;;;;3.50;3.20;;;;;;;;;;5060463;28;20864;-81
2021/05/21 05:55:29;;;;;;;5.27;3.97;;;14.00;99.90;;;;;;5061396;28;20500;-81
2021/05/21 05:57:55;;;;;;;3.73;3.00;;;14.00;99.90;;;;;;5059632;28;20457;-82
2021/05/21 06:00:22;;;;;;;4.70;3.30;;;15.20;99.90;;;;;;5058530;28;20458;-81
2021/05/21 06:02:48;;;;;;;6.00;3.60;;;;;;;;;;5059383;28;20940;-81
2021/05/21 06:05:14;;;;;;;6.80;4.97;;;14.20;99.90;;;;;;5059006;28;20865;-81
2021/05/21 06:07:41;;;;;;;4.30;4.00;;;14.30;99.90;;;;;;5058134;28;20476;-80
2021/05/21 06:10:08;;;;;;;4.10;3.60;;;14.40;99.90;;;;;;5059065;28;20489;-81
2021/05/21 06:12:35;;;;;;;4.77;3.33;;;;;;;;;;5058947;28;20449;-82
2021/05/21 06:15:02;;;;;;;2.67;2.57;;;;;;;;;;5059505;28;20452;-83
2021/05/21 06:17:28;;;;;;;3.10;2.80;;;14.70;99.90;;;;;;5066908;28;20445;-79
2021/05/21 06:19:54;;;;;;;2.67;2.50;;;;;;;;;;5065112;28;20464;-78
2021/05/21 06:22:21;;;;;;;3.17;2.97;;;;;;;;;;5066256;28;20456;-79
2021/05/21 06:24:49;;;;;;;7.07;2.80;;;14.90;99.90;;;;;;5059681;28;20445;-81
2021/05/21 06:27:16;;;;;;;4.73;2.80;;;14.80;99.90;;;;;;5058474;28;20472;-81
2021/05/21 06:29:43;;;;;;;3.60;3.30;;;15.20;99.90;;;;;;5057819;28;20456;-81
2021/05/21 06:32:09;;;;;;;2.87;2.77;;;;;;;;;;5058075;28;20986;-82
2021/05/21 06:34:36;;;;;;;5.53;3.00;;;;;;;;;;5058809;28;20460;-80
2021/05/21 06:37:02;;;;;;;3.03;2.80;;;15.10;99.90;;;;;;5060955;28;20488;-82
2021/05/21 06:39:29;;;;;;;2.70;2.50;;;;;;;;;;5058119;28;20465;-81
2021/05/21 06:41:55;;;;;;;2.57;2.20;;;15.10;99.90;;;;;;5058704;28;20449;-81
2021/05/21 06:44:21;;;;;;;2.80;2.03;;;15.10;99.90;;;;;;5060810;28;20457;-81
2021/05/21 06:46:49;;;;;;;2.37;2.23;;;;;;;;;;5059609;28;20448;-81
2021/05/21 06:49:17;;;;;;;2.60;2.40;;;15.30;99.90;;;;;;5060127;28;20470;-81
2021/05/21 06:51:43;;;;;;;3.43;3.10;;;;;;;;;;5059694;28;20477;-82
2021/05/21 06:54:10;;;;;;;2.63;2.30;;;15.30;99.90;;;;;;5058590;28;20851;-80
2021/05/21 06:56:36;;;;;;;4.03;2.37;;;;;;;;;;5058798;28;20487;-80
2021/05/21 06:59:03;;;;;;;2.77;2.50;;;15.40;99.90;;;;;;5059493;28;20477;-81
2021/05/21 07:01:30;;;;;;;2.97;2.30;;;15.40;99.90;;;;;;5059999;28;20442;-82
2021/05/21 07:03:57;;;;;;;2.30;1.97;;;15.60;99.90;;;;;;5061159;28;20445;-82
2021/05/21 07:06:23;;;;;;;2.63;2.43;;;15.80;99.90;;;;;;5059646;28;20434;-81
2021/05/21 07:08:50;;;;;;;2.20;2.00;;;;;;;;;;5059087;28;20470;-81
2021/05/21 07:11:19;;;;;;;1.90;1.80;;;;;;;;;;5059412;28;20891;-82
2021/05/21 07:13:46;;;;;;;2.37;2.17;;;;;;;;;;5062481;28;20468;-84
2021/05/21 07:16:13;;;;;;;2.43;2.30;;;;;;;;;;5058433;28;20450;-79
2021/05/21 07:18:39;;;;;;;4.80;2.60;;;16.10;99.90;;;;;;5071222;28;20457;-82
2021/05/21 07:21:06;;;;;;;2.43;2.20;;;;;;;;;;5068569;28;20432;-83
2021/05/21 07:23:33;;;;;;;2.13;1.93;;;;;;;;;;5064811;28;20427;-81
2021/05/21 07:25:59;;;;;;;2.50;2.00;;;;;;;;;;5063707;28;20456;-82
2021/05/21 07:28:26;;;;;;;2.80;2.60;;;;;;;;;;5063015;28;20480;-81
2021/05/21 07:30:52;;;;;;;3.03;2.13;;;16.40;99.90;;;;;;5063435;28;20485;-81
2021/05/21 07:33:18;;;;;;;2.20;2.10;;;16.70;99.90;;;;;;5060976;28;20470;-81
2021/05/21 07:35:45;;;;;;;2.30;1.70;;;16.70;99.90;;;;;;5066040;28;20442;-83
2021/05/21 07:38:12;;;;;;;2.03;1.83;;;;;;;;;;5069741;28;20445;-82
2021/05/21 07:40:39;;;;;;;2.27;2.07;;;17.00;99.90;;;;;;5068082;28;20456;-82
2021/05/21 07:43:05;;;;;;;3.03;2.23;;;;;;;;;;5067986;28;20453;-82
2021/05/21 07:45:32;;;;;;;2.53;1.90;;;;;;;;;;5066209;28;20442;-82
2021/05/21 07:47:58;;;;;;;3.03;1.53;;;;;;;;;;5070398;28;20472;-79
2021/05/21 07:50:25;;;;;;;9.00;1.70;;;;;;;;;;5066696;28;20891;-82
2021/05/21 07:52:51;;;;;;;3.33;1.87;;;17.10;99.90;;;;;;5067413;28;20449;-82
2021/05/21 07:55:18;;;;;;;1.97;1.87;;;17.40;99.90;;;;;;5068892;28;20457;-80
2021/05/21 07:57:44;;;;;;;5.50;1.50;;;;;;;;;;5067695;28;20452;-81
2021/05/21 08:00:12;;;;;;;4.10;2.17;;;17.00;99.90;;;;;;5066583;28;20480;-81
2021/05/21 08:02:38;;;;;;;2.60;1.70;;;17.00;99.90;;;;;;5066196;28;20421;-82
2021/05/21 08:05:08;;;;;;;3.23;1.50;;;16.90;99.90;;;;;;5069106;28;20446;-82
2021/05/21 08:07:35;;;;;;;2.77;1.83;;;;;;;;;;5071762;28;20430;-80
2021/05/21 08:10:04;;;;;;;2.07;1.53;;;;;;;;;;5072654;28;20495;-81
2021/05/21 08:12:35;;;;;;;1.97;1.80;;;17.20;99.90;;;;;;5071990;28;20537;-79
2021/05/21 08:15:02;;;;;;;3.37;2.93;;;;;;;;;;5071048;28;20421;-82
2021/05/21 08:17:31;;;;;;;1.90;1.77;;;;;;;;;;5068307;28;20453;-82
2021/05/21 08:19:58;;;;;;;5.73;2.00;;;;;;;;;;5070128;28;20465;-81
2021/05/21 08:22:25;;;;;;;2.07;1.87;;;;;;;;;;5071157;28;20472;-80
2021/05/21 08:24:52;;;;;;;1.63;1.53;;;;;;;;;;5072492;28;20437;-81
2021/05/21 08:27:18;;;;;;;2.30;2.00;;;;;;;;;;5074121;28;20438;-82
2021/05/21 08:29:45;;;;;;;3.40;1.40;;;17.60;99.90;;;;;;5076318;28;20540;-80
2021/05/21 08:32:12;;;;;;;2.90;2.27;;;;;;;;;;5074275;28;20449;-80
2021/05/21 08:34:38;;;;;;;1.50;1.40;;;17.70;99.90;;;;;;5074283;28;20521;-79
2021/05/21 08:37:05;;;;;;;7.13;5.70;;;;;;;;;;5070465;28;20959;-82
2021/05/21 08:39:32;;;;;;;4.40;3.03;;;;;;;;;;5066576;28;20469;-82
2021/05/21 08:41:59;;;;;;;5.43;2.57;;;17.80;99.90;;;;;;5066586;28;20450;-81
2021/05/21 08:44:27;;;;;;;5.73;1.83;;;18.10;99.90;;;;;;5062451;28;20457;-80
2021/05/21 08:46:54;;;;;;;4.03;2.20;;;18.20;99.90;;;;;;5066573;28;20445;-80
2021/05/21 08:49:23;;;;;;;7.63;2.10;;;18.30;99.90;;;;;;5071198;28;20465;-79
2021/05/21 08:51:49;;;;;;;5.57;1.77;;;;;;;;;;5065900;28;20482;-81
2021/05/21 08:54:16;;;;;;;6.00;1.60;;;;;;;;;;5071778;28;20449;-83
2021/05/21 08:56:44;;;;;;;3.83;1.90;;;18.50;99.90;;;;;;5068786;28;20445;-80
2021/05/21 08:59:10;;;;;;;2.50;1.57;;;;;;;;;;5073905;28;20462;-81
2021/05/21 09:01:51;;;;;;;1.63;1.53;;;18.60;99.90;;;;;;5075584;28;20507;-80
2021/05/21 09:04:19;;;;;;;9.20;1.80;;;18.70;99.90;;;;;;5074614;28;20483;-82
2021/05/21 09:06:45;;;;;;;5.03;2.00;;;;;;;;;;5077434;28;20455;-79
2021/05/21 09:09:11;;;;;;;2.80;1.70;;;;;;;;;;5073491;28;20985;-80
2021/05/21 09:11:40;;;;;;;5.63;1.80;;;18.50;99.90;;;;;;5073350;28;20487;-79
2021/05/21 09:14:08;;;;;;;5.77;2.87;;;18.60;99.90;;;;;;5064058;28;20523;-81
2021/05/21 09:16:37;;;;;;;1.60;1.50;;;18.50;99.90;;;;;;5064563;28;20443;-81
2021/05/21 09:19:13;;;;;;;2.90;1.43;;;18.70;99.90;;;;;;5064437;28;20479;-81
2021/05/21 09:21:47;;;;;;;2.90;1.60;;;18.70;99.90;;;;;;5065046;28;20438;-83
2021/05/21 09:24:14;;;;;;;1.60;1.50;;;;;;;;;;5065380;28;20496;-81
2021/05/21 09:26:41;;;;;;;1.50;1.37;;;;;;;;;;5065632;28;20500;-81
2021/05/21 09:31:42;;;;;;;2.30;1.77;;;18.90;99.90;;;;;;5033547;28;20513;-78
2021/05/21 09:34:08;;;;;;;2.03;1.60;;;18.80;99.90;;;;;;5036432;28;20502;-78
2021/05/21 09:36:36;;;;;;;2.00;1.57;;;18.70;99.90;;;;;;5034866;28;20822;-77
2021/05/21 09:39:06;;;;;;;3.50;1.93;;;18.30;99.90;;;;;;5034764;28;20538;-78
2021/05/21 09:41:44;;;;;;;1.33;1.10;;;18.60;99.90;;;;;;5034689;28;21009;-79
2021/05/21 09:44:10;;;;;;;10.00;1.50;;;18.70;99.90;;;;;;5035879;28;20432;-78
2021/05/21 09:46:38;;;;;;;1.97;1.40;;;18.90;99.90;;;;;;5035605;28;20486;-78
2021/05/21 09:49:25;;;;;;;3.60;1.40;;;19.20;99.90;;;;;;5036163;28;20448;-79
2021/05/21 09:51:51;;;;;;;2.60;1.67;;;19.00;99.90;;;;;;5036659;28;20464;-79
2021/05/21 09:54:18;;;;;;;3.60;1.87;;;19.10;99.90;;;;;;5036941;28;20444;-78
2021/05/21 09:56:59;;;;;;;4.37;1.70;;;18.90;99.90;;;;;;5040314;28;20460;-77
2021/05/21 09:59:37;;;;;;;2.60;1.23;;;18.80;99.90;;;;;;5041337;28;20477;-78
2021/05/21 10:02:18;;;;;;;1.50;1.40;;;18.70;99.90;;;;;;5039201;28;20457;-78
2021/05/21 10:04:44;;;;;;;3.73;2.50;;;18.60;99.90;;;;;;5039270;28;20501;-79
2021/05/21 10:07:11;;;;;;;2.00;1.90;;;18.60;99.90;;;;;;5036363;28;20457;-78
2021/05/21 10:09:38;;;;;;;2.23;1.20;;;18.70;99.90;;;;;;5036216;28;20478;-78
2021/05/21 10:12:06;;;;;;;4.50;1.60;;;18.90;99.90;;;;;;5035319;28;20491;-79
2021/05/21 10:14:32;;;;;;;3.90;2.03;;;19.00;99.90;;;;;;5037328;28;20954;-77
2021/05/21 10:17:00;;;;;;;2.30;1.50;;;19.10;99.90;;;;;;5037514;28;20444;-77
2021/05/21 10:19:26;;;;;;;6.10;1.30;;;19.10;99.90;;;;;;5036692;28;20496;-77
2021/05/21 10:21:52;;;;;;;4.80;1.13;;;19.20;99.90;;;;;;5036072;28;20452;-78
2021/05/21 10:24:20;;;;;;;3.30;1.23;;;19.30;99.90;;;;;;5035704;28;20446;-79
2021/05/21 10:26:51;;;;;;;3.50;1.27;;;19.40;99.90;;;;;;5035377;28;20934;-79
2021/05/21 10:29:21;;;;;;;3.73;1.63;;;19.60;99.90;;;;;;5035338;28;20467;-78
2021/05/21 10:31:51;;;;;;;1.40;1.30;;;19.40;99.90;;;;;;5035838;28;21018;-78
2021/05/21 10:34:19;;;;;;;4.80;1.50;;;19.70;99.90;;;;;;5036251;28;20971;-79
2021/05/21 10:36:45;;;;;;;3.47;1.97;;;19.70;99.90;;;;;;5037234;28;20845;-79
2021/05/21 10:39:15;;;;;;;9.43;3.20;;;19.20;99.90;;;;;;5033493;28;20457;-79
2021/05/21 10:41:51;;;;;;;2.07;1.67;;;19.60;99.90;;;;;;5033614;28;20452;-79
2021/05/21 10:44:22;;;;;;;5.37;1.73;;;19.60;99.90;;;;;;5033459;28;20468;-78
2021/05/21 10:46:49;;;;;;;2.20;1.70;;;19.70;99.90;;;;;;5035202;28;20905;-79
2021/05/21 10:49:25;;;;;;;4.20;1.33;;;19.70;99.90;;;;;;5039874;28;20498;-79
2021/05/21 10:51:52;;;;;;;2.07;1.20;;;19.60;99.90;;;;;;5037114;28;20494;-79
2021/05/21 10:54:30;;;;;;;3.73;1.87;;;19.80;99.90;;;;;;5037136;28;20456;-78
2021/05/21 10:57:10;;;;;;;1.73;1.23;;;19.80;99.90;;;;;;5037989;28;20487;-78
2021/05/21 10:59:43;;;;;;;3.37;1.63;;;19.90;99.90;;;;;;5035871;28;20487;-78
2021/05/21 11:02:12;;;;;;;3.17;2.07;;;20.10;99.90;;;;;;5034841;28;20435;-78
2021/05/21 11:04:38;;;;;;;3.90;2.23;;;19.80;98.00;;;;;;5040260;28;20479;-78
2021/05/21 11:07:06;;;;;;;3.07;1.27;;;20.00;99.40;;;;;;5038138;28;20446;-77
2021/05/21 11:09:41;;;;;;;2.20;1.17;;;20.00;98.20;;;;;;5033390;28;20474;-78
2021/05/21 11:12:09;;;;;;;1.33;1.00;;;20.00;97.40;;;;;;5037487;28;20461;-77
2021/05/21 11:14:40;;;;;;;4.10;1.40;;;20.10;97.00;;;;;;5039788;28;20509;-78
2021/05/21 11:17:15;;;;;;;3.53;1.87;;;20.20;96.20;;;;;;5038363;28;20479;-78
2021/05/21 11:19:48;;;;;;;2.13;1.93;;;20.10;96.30;;;;;;5042582;28;20470;-78
2021/05/21 11:22:22;;;;;;;2.13;1.93;;;19.90;98.80;;;;;;5041869;28;20473;-78
2021/05/21 11:24:52;;;;;;;4.37;2.00;;;19.70;97.50;;;;;;5039850;28;20616;-78
2021/05/21 11:27:20;;;;;;;3.43;2.00;;;19.80;98.60;;;;;;5039558;28;20961;-78
2021/05/21 11:29:48;;;;;;;3.07;2.40;;;19.90;98.00;;;;;;5039433;28;20829;-79
2021/05/21 11:32:15;;;;;;;4.10;1.87;;;20.00;97.50;;;;;;5039206;28;20477;-79
2021/05/21 11:34:41;;;;;;;1.80;1.23;;;20.10;99.90;;;;;;5042059;28;20438;-78
2021/05/21 11:37:08;;;;;;;6.03;1.77;;;20.30;98.10;;;;;;5038383;28;20937;-79
2021/05/21 11:39:37;;;;;;;3.10;2.30;;;20.70;99.90;;;;;;5041479;28;20976;-79
2021/05/21 11:42:05;;;;;;;3.60;2.20;;;20.40;96.30;;;;;;5040801;28;20450;-78
2021/05/21 11:44:33;;;;;;;4.07;2.20;;;20.90;96.60;;;;;;5039771;28;20545;-79
2021/05/21 11:47:03;;;;;;;8.27;2.20;;;20.40;97.60;;;;;;5039974;28;20559;-79
2021/05/21 11:49:30;;;;;;;6.73;2.53;;;21.80;99.90;;;;;;5037383;28;20477;-79
2021/05/21 11:51:59;;;;;;;10.90;1.73;;;20.70;99.90;;;;;;5037208;28;20819;-78
2021/05/21 11:54:27;;;;;;;4.10;2.27;;;20.60;99.90;;;;;;5038132;28;20458;-79
2021/05/21 11:56:53;;;;;;;5.10;1.60;;;;;;;;;;5036802;28;20537;-78
2021/05/21 11:59:23;;;;;;;1.87;1.27;;;20.50;99.90;;;;;;5038978;28;20985;-79
2021/05/21 12:01:51;;;;;;;1.90;1.30;;;20.50;99.90;;;;;;5039320;28;20489;-80
2021/05/21 12:04:19;;;;;;;2.60;1.20;;;20.10;99.90;;;;;;5041181;28;20446;-78
2021/05/21 12:06:47;;;;;;;1.60;1.30;;;19.80;99.90;;;;;;5038837;28;20503;-79
2021/05/21 12:09:15;;;;;;;3.93;1.90;;;20.50;99.90;;;;;;5039694;28;20481;-79
2021/05/21 12:11:42;;;;;;;3.37;1.60;;;20.40;99.90;;;;;;5037788;28;20491;-78
2021/05/21 12:14:12;;;;;;;3.47;2.20;;;19.90;99.90;;;;;;5037622;28;20466;-79
2021/05/21 12:16:41;;;;;;;6.07;1.40;;;20.40;99.90;;;;;;5038207;28;20836;-79
2021/05/21 12:19:12;;;;;;;1.47;1.20;;;20.20;99.90;;;;;;5038604;28;20485;-78
2021/05/21 12:21:40;;;;;;;2.27;1.30;;;20.20;99.90;;;;;;5038886;28;20432;-78
2021/05/21 12:24:08;;;;;;;2.93;1.40;;;20.10;99.90;;;;;;5040958;28;20537;-79
2021/05/21 12:26:36;;;;;;;3.57;1.60;;;20.10;99.90;;;;;;5037568;28;20451;-78
2021/05/21 12:29:08;;;;;;;3.53;1.43;;;20.20;99.90;;;;;;5039160;28;20825;-78
2021/05/21 12:31:37;;;;;;;2.73;1.87;;;19.80;99.90;;;;;;5039039;28;20577;-79
2021/05/21 12:34:04;;;;;;;6.40;2.77;;;19.80;99.90;;;;;;5039351;28;20513;-78
2021/05/21 12:36:33;;;;;;;5.63;2.60;;;20.20;99.90;;;;;;5038219;28;20451;-79
2021/05/21 12:39:03;;;;;;;3.10;2.90;;;20.10;99.90;;;;;;5035997;28;20474;-78
2021/05/21 12:41:31;;;;;;;4.60;2.27;;;20.40;99.90;;;;;;5037834;28;20458;-79
2021/05/21 12:44:09;;;;;;;2.23;1.43;;;19.90;99.90;;;;;;5035737;28;20455;-78
2021/05/21 12:46:54;;;;;;;3.63;2.03;;;20.20;99.90;;;;;;5035934;28;20454;-78
2021/05/21 12:49:24;;;;;;;6.63;1.50;;;20.00;99.90;;;;;;5036129;28;20470;-78
2021/05/21 12:51:52;;;;;;;2.93;1.00;;;20.00;99.90;;;;;;5035620;28;20844;-78
2021/05/21 12:54:22;;;;;;;1.47;1.30;;;19.90;99.90;;;;;;5035642;28;20450;-79
2021/05/21 12:56:56;;;;;;;1.83;1.67;;;19.90;99.90;;;;;;5035395;28;20451;-79
2021/05/21 12:59:22;;;;;;;4.00;1.60;;;19.80;99.90;;;;;;5037372;28;20493;-78
2021/05/21 13:01:55;;;;;;;1.80;1.30;;;19.80;99.90;;;;;;5036970;28;20497;-78
2021/05/21 13:04:21;;;;;;;2.20;1.67;;;19.60;99.90;;;;;;5036372;28;20430;-78
2021/05/21 13:06:49;;;;;;;3.70;2.60;;;;;;;;;;5036585;28;20481;-79
2021/05/21 13:09:16;;;;;;;5.67;2.87;;;20.30;99.90;;;;;;5035600;28;20960;-78
2021/05/21 13:11:53;;;;;;;1.97;1.33;;;20.00;99.90;;;;;;5034902;28;20549;-79